sensor_id;sensor_type;location;lat;lon;timestamp;temperature;humidity
39621;DHT22;25309;48.686;9.170;2024-02-26T00:01:06;7.40;99.90
39621;DHT22;25309;48.686;9.170;2024-02-26T00:03:33;7.40;99.90
39621;DHT22;25309;48.686;9.170;2024-02-26T00:06:02;7.40;99.90
39621;DHT22;25309;48.686;9.170;2024-02-26T00:08:30;7.50;99.90
39621;DHT22;25309;48.686;9.170;2024-02-26T00:10:57;7.50;99.90
39621;DHT22;25309;48.686;9.170;2024-02-26T00:13:24;7.50;99.90
39621;DHT22;25309;48.686;9.170;2024-02-26T00:15:50;7.50;99.90
39621;DHT22;25309;48.686;9.170;2024-02-26T00:18:19;7.60;99.90
39621;DHT22;25309;48.686;9.170;2024-02-26T00:20:46;7.60;99.90
39621;DHT22;25309;48.686;9.170;2024-02-26T00:23:15;7.70;99.90
39621;DHT22;25309;48.686;9.170;2024-02-26T00:25:42;7.70;99.90
39621;DHT22;25309;48.686;9.170;2024-02-26T00:28:10;7.70;99.90
39621;DHT22;25309;48.686;9.170;2024-02-26T00:30:37;7.60;99.90
39621;DHT22;25309;48.686;9.170;2024-02-26T00:33:04;7.60;99.90
39621;DHT22;25309;48.686;9.170;2024-02-26T00:35:32;7.70;99.90
39621;DHT22;25309;48.686;9.170;2024-02-26T00:37:59;7.70;99.90
39621;DHT22;25309;48.686;9.170;2024-02-26T00:40:27;7.70;99.90
39621;DHT22;25309;48.686;9.170;2024-02-26T00:42:54;7.70;99.90
39621;DHT22;25309;48.686;9.170;2024-02-26T00:45:21;7.70;99.90
39621;DHT22;25309;48.686;9.170;2024-02-26T00:47:49;7.70;99.90
39621;DHT22;25309;48.686;9.170;2024-02-26T00:50:16;7.70;99.90
39621;DHT22;25309;48.686;9.170;2024-02-26T00:52:45;7.70;99.90
39621;DHT22;25309;48.686;9.170;2024-02-26T00:55:12;7.70;99.90
39621;DHT22;25309;48.686;9.170;2024-02-26T00:57:39;7.70;99.90
39621;DHT22;25309;48.686;9.170;2024-02-26T01:00:08;7.60;99.90
39621;DHT22;25309;48.686;9.170;2024-02-26T01:02:38;7.60;99.90
39621;DHT22;25309;48.686;9.170;2024-02-26T01:05:06;7.50;99.90
39621;DHT22;25309;48.686;9.170;2024-02-26T01:07:33;7.40;99.90
39621;DHT22;25309;48.686;9.170;2024-02-26T01:10:05;7.40;99.90
39621;DHT22;25309;48.686;9.170;2024-02-26T01:12:33;7.40;99.90
39621;DHT22;25309;48.686;9.170;2024-02-26T01:15:01;7.30;99.90
39621;DHT22;25309;48.686;9.170;2024-02-26T01:17:28;7.30;99.90
39621;DHT22;25309;48.686;9.170;2024-02-26T01:19:55;7.40;99.90
39621;DHT22;25309;48.686;9.170;2024-02-26T01:22:22;7.40;99.90
39621;DHT22;25309;48.686;9.170;2024-02-26T01:24:50;7.40;99.90
39621;DHT22;25309;48.686;9.170;2024-02-26T01:27:18;7.40;99.90
39621;DHT22;25309;48.686;9.170;2024-02-26T01:29:45;7.40;99.90
39621;DHT22;25309;48.686;9.170;2024-02-26T01:32:12;7.50;99.90
39621;DHT22;25309;48.686;9.170;2024-02-26T01:34:39;7.50;99.90
39621;DHT22;25309;48.686;9.170;2024-02-26T01:37:06;7.50;99.90
39621;DHT22;25309;48.686;9.170;2024-02-26T01:39:33;7.40;99.90
39621;DHT22;25309;48.686;9.170;2024-02-26T01:42:01;7.30;99.90
39621;DHT22;25309;48.686;9.170;2024-02-26T01:44:29;7.30;99.90
39621;DHT22;25309;48.686;9.170;2024-02-26T01:46:56;7.30;99.90
39621;DHT22;25309;48.686;9.170;2024-02-26T01:49:24;7.30;99.90
39621;DHT22;25309;48.686;9.170;2024-02-26T01:51:51;7.30;99.90
39621;DHT22;25309;48.686;9.170;2024-02-26T01:54:18;7.30;99.90
39621;DHT22;25309;48.686;9.170;2024-02-26T01:56:45;7.30;99.90
39621;DHT22;25309;48.686;9.170;2024-02-26T01:59:13;7.20;99.90
39621;DHT22;25309;48.686;9.170;2024-02-26T02:01:44;7.20;99.90
39621;DHT22;25309;48.686;9.170;2024-02-26T02:04:14;7.10;99.90
39621;DHT22;25309;48.686;9.170;2024-02-26T02:06:42;7.20;99.90
39621;DHT22;25309;48.686;9.170;2024-02-26T02:09:12;7.20;99.90
39621;DHT22;25309;48.686;9.170;2024-02-26T02:11:39;7.30;99.90
39621;DHT22;25309;48.686;9.170;2024-02-26T02:14:06;7.40;99.90
39621;DHT22;25309;48.686;9.170;2024-02-26T02:16:33;7.40;99.90
39621;DHT22;25309;48.686;9.170;2024-02-26T02:19:02;7.50;99.90
39621;DHT22;25309;48.686;9.170;2024-02-26T02:21:30;7.60;99.90
39621;DHT22;25309;48.686;9.170;2024-02-26T02:23:57;7.60;99.90
39621;DHT22;25309;48.686;9.170;2024-02-26T02:26:24;7.60;99.90
39621;DHT22;25309;48.686;9.170;2024-02-26T02:28:51;7.50;99.90
39621;DHT22;25309;48.686;9.170;2024-02-26T02:31:19;7.60;99.90
39621;DHT22;25309;48.686;9.170;2024-02-26T02:33:46;7.50;99.90
39621;DHT22;25309;48.686;9.170;2024-02-26T02:36:14;7.40;99.90
39621;DHT22;25309;48.686;9.170;2024-02-26T02:38:49;7.40;99.90
39621;DHT22;25309;48.686;9.170;2024-02-26T02:41:17;7.40;99.90
39621;DHT22;25309;48.686;9.170;2024-02-26T02:43:45;7.30;99.90
39621;DHT22;25309;48.686;9.170;2024-02-26T02:46:12;7.30;99.90
39621;DHT22;25309;48.686;9.170;2024-02-26T02:48:39;7.30;99.90
39621;DHT22;25309;48.686;9.170;2024-02-26T02:51:08;7.40;99.90
39621;DHT22;25309;48.686;9.170;2024-02-26T02:53:36;7.40;99.90
39621;DHT22;25309;48.686;9.170;2024-02-26T02:56:05;7.50;99.90
39621;DHT22;25309;48.686;9.170;2024-02-26T02:58:32;7.60;99.90
39621;DHT22;25309;48.686;9.170;2024-02-26T03:00:59;7.60;99.90
39621;DHT22;25309;48.686;9.170;2024-02-26T03:03:27;7.60;99.90
39621;DHT22;25309;48.686;9.170;2024-02-26T03:05:55;7.70;99.90
39621;DHT22;25309;48.686;9.170;2024-02-26T03:08:24;7.70;99.90
39621;DHT22;25309;48.686;9.170;2024-02-26T03:10:52;7.80;99.90
39621;DHT22;25309;48.686;9.170;2024-02-26T03:13:20;7.80;99.90
39621;DHT22;25309;48.686;9.170;2024-02-26T03:15:47;7.90;99.90
39621;DHT22;25309;48.686;9.170;2024-02-26T03:18:15;7.90;99.90
39621;DHT22;25309;48.686;9.170;2024-02-26T03:20:42;8.00;99.90
39621;DHT22;25309;48.686;9.170;2024-02-26T03:23:09;8.00;99.90
39621;DHT22;25309;48.686;9.170;2024-02-26T03:25:39;8.10;99.90
39621;DHT22;25309;48.686;9.170;2024-02-26T03:28:06;8.30;99.90
39621;DHT22;25309;48.686;9.170;2024-02-26T03:30:34;8.40;99.90
39621;DHT22;25309;48.686;9.170;2024-02-26T03:33:01;8.50;99.90
39621;DHT22;25309;48.686;9.170;2024-02-26T03:35:29;8.60;99.90
39621;DHT22;25309;48.686;9.170;2024-02-26T03:37:56;8.70;99.90
39621;DHT22;25309;48.686;9.170;2024-02-26T03:40:23;8.70;99.90
39621;DHT22;25309;48.686;9.170;2024-02-26T03:42:51;8.70;99.90
39621;DHT22;25309;48.686;9.170;2024-02-26T03:45:20;8.70;99.90
39621;DHT22;25309;48.686;9.170;2024-02-26T03:47:49;8.70;99.90
39621;DHT22;25309;48.686;9.170;2024-02-26T03:50:16;8.70;99.90
39621;DHT22;25309;48.686;9.170;2024-02-26T03:52:43;8.70;99.90
39621;DHT22;25309;48.686;9.170;2024-02-26T03:55:10;8.70;99.90
39621;DHT22;25309;48.686;9.170;2024-02-26T03:57:37;8.60;99.90
39621;DHT22;25309;48.686;9.170;2024-02-26T04:00:05;8.50;99.90
39621;DHT22;25309;48.686;9.170;2024-02-26T04:02:36;8.50;99.90
39621;DHT22;25309;48.686;9.170;2024-02-26T04:05:08;8.40;99.90
39621;DHT22;25309;48.686;9.170;2024-02-26T04:07:35;8.20;99.90
39621;DHT22;25309;48.686;9.170;2024-02-26T04:10:02;8.20;99.90
39621;DHT22;25309;48.686;9.170;2024-02-26T04:12:33;8.10;99.90
39621;DHT22;25309;48.686;9.170;2024-02-26T04:14:59;8.00;99.90
39621;DHT22;25309;48.686;9.170;2024-02-26T04:17:26;7.90;99.90
39621;DHT22;25309;48.686;9.170;2024-02-26T04:19:53;7.80;99.90
39621;DHT22;25309;48.686;9.170;2024-02-26T04:22:22;7.70;99.90
39621;DHT22;25309;48.686;9.170;2024-02-26T04:24:49;7.60;99.90
39621;DHT22;25309;48.686;9.170;2024-02-26T04:27:15;7.50;99.90
39621;DHT22;25309;48.686;9.170;2024-02-26T04:29:43;7.50;99.90
39621;DHT22;25309;48.686;9.170;2024-02-26T04:32:10;7.40;99.90
39621;DHT22;25309;48.686;9.170;2024-02-26T04:34:37;7.30;99.90
39621;DHT22;25309;48.686;9.170;2024-02-26T04:37:04;7.20;99.90
39621;DHT22;25309;48.686;9.170;2024-02-26T04:39:33;7.20;99.90
39621;DHT22;25309;48.686;9.170;2024-02-26T04:42:00;7.20;99.90
39621;DHT22;25309;48.686;9.170;2024-02-26T04:44:30;7.10;99.90
39621;DHT22;25309;48.686;9.170;2024-02-26T04:46:57;7.10;99.90
39621;DHT22;25309;48.686;9.170;2024-02-26T04:49:24;7.10;99.90
39621;DHT22;25309;48.686;9.170;2024-02-26T04:51:51;7.10;99.90
39621;DHT22;25309;48.686;9.170;2024-02-26T04:54:18;7.10;99.90
39621;DHT22;25309;48.686;9.170;2024-02-26T04:56:47;7.10;99.90
39621;DHT22;25309;48.686;9.170;2024-02-26T04:59:14;7.10;99.90
39621;DHT22;25309;48.686;9.170;2024-02-26T05:01:41;7.20;99.90
39621;DHT22;25309;48.686;9.170;2024-02-26T05:04:08;7.20;99.90
39621;DHT22;25309;48.686;9.170;2024-02-26T05:06:36;7.20;99.90
39621;DHT22;25309;48.686;9.170;2024-02-26T05:09:04;7.30;99.90
39621;DHT22;25309;48.686;9.170;2024-02-26T05:11:31;7.30;99.90
39621;DHT22;25309;48.686;9.170;2024-02-26T05:14:00;7.40;99.90
39621;DHT22;25309;48.686;9.170;2024-02-26T05:16:27;7.40;99.90
39621;DHT22;25309;48.686;9.170;2024-02-26T05:18:57;7.40;99.90
39621;DHT22;25309;48.686;9.170;2024-02-26T05:21:24;7.40;99.90
39621;DHT22;25309;48.686;9.170;2024-02-26T05:23:51;7.40;99.90
39621;DHT22;25309;48.686;9.170;2024-02-26T05:26:21;7.40;99.90
39621;DHT22;25309;48.686;9.170;2024-02-26T05:28:48;7.40;99.90
39621;DHT22;25309;48.686;9.170;2024-02-26T05:31:16;7.40;99.90
39621;DHT22;25309;48.686;9.170;2024-02-26T05:33:45;7.40;99.90
39621;DHT22;25309;48.686;9.170;2024-02-26T05:36:18;7.40;99.90
39621;DHT22;25309;48.686;9.170;2024-02-26T05:38:45;7.40;99.90
39621;DHT22;25309;48.686;9.170;2024-02-26T05:41:14;7.30;99.90
39621;DHT22;25309;48.686;9.170;2024-02-26T05:43:42;7.40;99.90
39621;DHT22;25309;48.686;9.170;2024-02-26T05:46:09;7.30;99.90
39621;DHT22;25309;48.686;9.170;2024-02-26T05:48:37;7.30;99.90
39621;DHT22;25309;48.686;9.170;2024-02-26T05:51:04;7.30;99.90
39621;DHT22;25309;48.686;9.170;2024-02-26T05:53:32;7.30;99.90
39621;DHT22;25309;48.686;9.170;2024-02-26T05:55:58;7.30;99.90
39621;DHT22;25309;48.686;9.170;2024-02-26T05:58:25;7.40;99.90
39621;DHT22;25309;48.686;9.170;2024-02-26T06:00:52;7.40;99.90
39621;DHT22;25309;48.686;9.170;2024-02-26T06:03:19;7.30;99.90
39621;DHT22;25309;48.686;9.170;2024-02-26T06:05:48;7.30;99.90
39621;DHT22;25309;48.686;9.170;2024-02-26T06:08:15;7.20;99.90
39621;DHT22;25309;48.686;9.170;2024-02-26T06:10:42;7.20;99.90
39621;DHT22;25309;48.686;9.170;2024-02-26T06:13:09;7.20;99.90
39621;DHT22;25309;48.686;9.170;2024-02-26T06:15:36;7.20;99.90
39621;DHT22;25309;48.686;9.170;2024-02-26T06:18:03;7.20;99.90
39621;DHT22;25309;48.686;9.170;2024-02-26T06:20:30;7.20;99.90
39621;DHT22;25309;48.686;9.170;2024-02-26T06:22:58;7.20;99.90
39621;DHT22;25309;48.686;9.170;2024-02-26T06:25:25;7.20;99.90
39621;DHT22;25309;48.686;9.170;2024-02-26T06:27:52;7.20;99.90
39621;DHT22;25309;48.686;9.170;2024-02-26T06:30:19;7.20;99.90
39621;DHT22;25309;48.686;9.170;2024-02-26T06:32:46;7.20;99.90
39621;DHT22;25309;48.686;9.170;2024-02-26T06:35:13;7.10;99.90
39621;DHT22;25309;48.686;9.170;2024-02-26T06:37:40;7.10;99.90
39621;DHT22;25309;48.686;9.170;2024-02-26T06:40:09;7.00;99.90
39621;DHT22;25309;48.686;9.170;2024-02-26T06:42:36;6.90;99.90
39621;DHT22;25309;48.686;9.170;2024-02-26T06:45:05;6.90;99.90
39621;DHT22;25309;48.686;9.170;2024-02-26T06:47:32;6.90;99.90
39621;DHT22;25309;48.686;9.170;2024-02-26T06:49:59;7.00;99.90
39621;DHT22;25309;48.686;9.170;2024-02-26T06:52:27;7.00;99.90
39621;DHT22;25309;48.686;9.170;2024-02-26T06:54:54;7.10;99.90
39621;DHT22;25309;48.686;9.170;2024-02-26T06:57:23;7.10;99.90
39621;DHT22;25309;48.686;9.170;2024-02-26T06:59:51;7.10;99.90
39621;DHT22;25309;48.686;9.170;2024-02-26T07:02:18;7.20;99.90
39621;DHT22;25309;48.686;9.170;2024-02-26T07:04:45;7.20;99.90
39621;DHT22;25309;48.686;9.170;2024-02-26T07:07:12;7.20;99.90
39621;DHT22;25309;48.686;9.170;2024-02-26T07:09:42;7.30;99.90
39621;DHT22;25309;48.686;9.170;2024-02-26T07:12:09;7.40;99.90
39621;DHT22;25309;48.686;9.170;2024-02-26T07:14:38;7.50;99.90
39621;DHT22;25309;48.686;9.170;2024-02-26T07:17:05;7.60;99.90
39621;DHT22;25309;48.686;9.170;2024-02-26T07:19:32;7.60;99.90
39621;DHT22;25309;48.686;9.170;2024-02-26T07:22:00;7.70;99.90
39621;DHT22;25309;48.686;9.170;2024-02-26T07:24:30;7.70;99.90
39621;DHT22;25309;48.686;9.170;2024-02-26T07:26:57;7.70;99.90
39621;DHT22;25309;48.686;9.170;2024-02-26T07:29:23;7.70;99.90
39621;DHT22;25309;48.686;9.170;2024-02-26T07:31:52;7.80;99.90
39621;DHT22;25309;48.686;9.170;2024-02-26T07:34:19;7.80;99.90
39621;DHT22;25309;48.686;9.170;2024-02-26T07:36:46;7.90;99.90
39621;DHT22;25309;48.686;9.170;2024-02-26T07:39:13;7.90;99.90
39621;DHT22;25309;48.686;9.170;2024-02-26T07:41:40;8.00;99.90
39621;DHT22;25309;48.686;9.170;2024-02-26T07:44:07;8.00;99.90
39621;DHT22;25309;48.686;9.170;2024-02-26T07:46:34;8.10;99.90
39621;DHT22;25309;48.686;9.170;2024-02-26T07:49:03;8.10;99.90
39621;DHT22;25309;48.686;9.170;2024-02-26T07:51:30;8.20;99.90
39621;DHT22;25309;48.686;9.170;2024-02-26T07:53:57;8.20;99.90
39621;DHT22;25309;48.686;9.170;2024-02-26T07:56:24;8.30;99.90
39621;DHT22;25309;48.686;9.170;2024-02-26T07:58:51;8.30;99.90
39621;DHT22;25309;48.686;9.170;2024-02-26T08:01:18;8.40;99.90
39621;DHT22;25309;48.686;9.170;2024-02-26T08:03:45;8.40;99.90
39621;DHT22;25309;48.686;9.170;2024-02-26T08:06:14;8.50;99.90
39621;DHT22;25309;48.686;9.170;2024-02-26T08:08:41;8.50;99.90
39621;DHT22;25309;48.686;9.170;2024-02-26T08:11:08;8.50;99.90
39621;DHT22;25309;48.686;9.170;2024-02-26T08:13:35;8.50;99.90
39621;DHT22;25309;48.686;9.170;2024-02-26T08:16:03;8.40;99.90
39621;DHT22;25309;48.686;9.170;2024-02-26T08:18:30;8.40;99.90
39621;DHT22;25309;48.686;9.170;2024-02-26T08:20:57;8.40;99.90
39621;DHT22;25309;48.686;9.170;2024-02-26T08:23:25;8.30;99.90
39621;DHT22;25309;48.686;9.170;2024-02-26T08:25:53;8.30;99.90
39621;DHT22;25309;48.686;9.170;2024-02-26T08:28:20;8.30;99.90
39621;DHT22;25309;48.686;9.170;2024-02-26T08:30:46;8.30;99.90
39621;DHT22;25309;48.686;9.170;2024-02-26T08:33:13;8.30;99.90
39621;DHT22;25309;48.686;9.170;2024-02-26T08:35:41;8.30;99.90
39621;DHT22;25309;48.686;9.170;2024-02-26T08:38:08;8.30;99.90
39621;DHT22;25309;48.686;9.170;2024-02-26T08:40:36;8.40;99.90
39621;DHT22;25309;48.686;9.170;2024-02-26T08:43:04;8.40;99.90
39621;DHT22;25309;48.686;9.170;2024-02-26T08:45:31;8.50;99.90
39621;DHT22;25309;48.686;9.170;2024-02-26T08:47:58;8.70;99.90
39621;DHT22;25309;48.686;9.170;2024-02-26T08:50:26;8.80;99.90
39621;DHT22;25309;48.686;9.170;2024-02-26T08:52:53;8.90;99.90
39621;DHT22;25309;48.686;9.170;2024-02-26T08:55:20;9.00;99.90
39621;DHT22;25309;48.686;9.170;2024-02-26T08:57:49;9.10;99.90
39621;DHT22;25309;48.686;9.170;2024-02-26T09:00:16;9.20;99.90
39621;DHT22;25309;48.686;9.170;2024-02-26T09:02:44;9.20;99.90
39621;DHT22;25309;48.686;9.170;2024-02-26T09:05:11;9.30;99.90
39621;DHT22;25309;48.686;9.170;2024-02-26T09:07:38;9.40;99.90
39621;DHT22;25309;48.686;9.170;2024-02-26T09:10:06;9.50;99.90
39621;DHT22;25309;48.686;9.170;2024-02-26T09:12:37;9.60;99.90
39621;DHT22;25309;48.686;9.170;2024-02-26T09:15:07;9.70;99.90
39621;DHT22;25309;48.686;9.170;2024-02-26T09:17:34;9.70;99.90
39621;DHT22;25309;48.686;9.170;2024-02-26T09:20:02;9.80;99.90
39621;DHT22;25309;48.686;9.170;2024-02-26T09:22:29;9.80;99.90
39621;DHT22;25309;48.686;9.170;2024-02-26T09:24:56;9.90;99.90
39621;DHT22;25309;48.686;9.170;2024-02-26T09:27:23;9.90;99.90
39621;DHT22;25309;48.686;9.170;2024-02-26T09:29:50;9.90;99.90
39621;DHT22;25309;48.686;9.170;2024-02-26T09:32:19;10.00;99.90
39621;DHT22;25309;48.686;9.170;2024-02-26T09:34:46;10.00;99.90
39621;DHT22;25309;48.686;9.170;2024-02-26T09:37:13;9.90;99.90
39621;DHT22;25309;48.686;9.170;2024-02-26T09:39:48;9.90;99.90
39621;DHT22;25309;48.686;9.170;2024-02-26T09:42:18;9.90;99.90
39621;DHT22;25309;48.686;9.170;2024-02-26T09:44:46;10.00;99.90
39621;DHT22;25309;48.686;9.170;2024-02-26T09:47:16;10.10;99.90
39621;DHT22;25309;48.686;9.170;2024-02-26T09:49:46;10.30;99.90
39621;DHT22;25309;48.686;9.170;2024-02-26T09:52:15;10.50;99.90
39621;DHT22;25309;48.686;9.170;2024-02-26T09:54:47;10.70;99.90
39621;DHT22;25309;48.686;9.170;2024-02-26T09:57:15;10.90;99.90
39621;DHT22;25309;48.686;9.170;2024-02-26T09:59:44;11.10;99.90
39621;DHT22;25309;48.686;9.170;2024-02-26T10:02:14;11.20;99.90
39621;DHT22;25309;48.686;9.170;2024-02-26T10:04:42;11.50;99.90
39621;DHT22;25309;48.686;9.170;2024-02-26T10:07:17;11.70;99.90
39621;DHT22;25309;48.686;9.170;2024-02-26T10:09:44;12.00;99.90
39621;DHT22;25309;48.686;9.170;2024-02-26T10:12:11;12.00;99.90
39621;DHT22;25309;48.686;9.170;2024-02-26T10:14:39;12.30;99.90
39621;DHT22;25309;48.686;9.170;2024-02-26T10:17:07;12.40;99.90
39621;DHT22;25309;48.686;9.170;2024-02-26T10:19:35;12.50;99.90
39621;DHT22;25309;48.686;9.170;2024-02-26T10:22:05;12.50;99.90
39621;DHT22;25309;48.686;9.170;2024-02-26T10:24:34;12.60;99.70
39621;DHT22;25309;48.686;9.170;2024-02-26T10:27:02;12.80;98.70
39621;DHT22;25309;48.686;9.170;2024-02-26T10:29:30;12.90;98.30
39621;DHT22;25309;48.686;9.170;2024-02-26T10:31:58;12.90;98.20
39621;DHT22;25309;48.686;9.170;2024-02-26T10:34:24;12.80;98.10
39621;DHT22;25309;48.686;9.170;2024-02-26T10:36:53;12.80;98.00
39621;DHT22;25309;48.686;9.170;2024-02-26T10:39:21;12.80;98.40
39621;DHT22;25309;48.686;9.170;2024-02-26T10:41:50;12.80;98.50
39621;DHT22;25309;48.686;9.170;2024-02-26T10:44:17;12.70;98.40
39621;DHT22;25309;48.686;9.170;2024-02-26T10:46:47;12.70;98.60
39621;DHT22;25309;48.686;9.170;2024-02-26T10:49:15;12.70;98.40
39621;DHT22;25309;48.686;9.170;2024-02-26T10:51:50;12.80;98.50
39621;DHT22;25309;48.686;9.170;2024-02-26T10:54:19;12.90;99.20
39621;DHT22;25309;48.686;9.170;2024-02-26T10:56:51;12.90;99.10
39621;DHT22;25309;48.686;9.170;2024-02-26T10:59:19;13.00;98.20
39621;DHT22;25309;48.686;9.170;2024-02-26T11:01:48;12.80;98.50
39621;DHT22;25309;48.686;9.170;2024-02-26T11:04:16;12.70;98.80
39621;DHT22;25309;48.686;9.170;2024-02-26T11:06:45;12.50;97.80
39621;DHT22;25309;48.686;9.170;2024-02-26T11:09:13;12.50;98.50
39621;DHT22;25309;48.686;9.170;2024-02-26T11:11:41;12.80;99.10
39621;DHT22;25309;48.686;9.170;2024-02-26T11:14:11;13.20;99.00
39621;DHT22;25309;48.686;9.170;2024-02-26T11:16:40;13.70;98.50
39621;DHT22;25309;48.686;9.170;2024-02-26T11:19:10;14.20;97.70
39621;DHT22;25309;48.686;9.170;2024-02-26T11:21:39;14.30;97.50
39621;DHT22;25309;48.686;9.170;2024-02-26T11:24:12;14.30;96.50
39621;DHT22;25309;48.686;9.170;2024-02-26T11:26:43;14.30;96.50
39621;DHT22;25309;48.686;9.170;2024-02-26T11:29:17;14.30;96.20
39621;DHT22;25309;48.686;9.170;2024-02-26T11:31:47;14.10;96.70
39621;DHT22;25309;48.686;9.170;2024-02-26T11:34:14;14.00;96.70
39621;DHT22;25309;48.686;9.170;2024-02-26T11:36:42;13.90;96.60
39621;DHT22;25309;48.686;9.170;2024-02-26T11:39:11;13.80;97.00
39621;DHT22;25309;48.686;9.170;2024-02-26T11:41:39;13.80;96.50
39621;DHT22;25309;48.686;9.170;2024-02-26T11:44:06;13.60;96.80
39621;DHT22;25309;48.686;9.170;2024-02-26T11:46:40;13.60;97.50
39621;DHT22;25309;48.686;9.170;2024-02-26T11:49:31;13.60;97.70
39621;DHT22;25309;48.686;9.170;2024-02-26T11:51:59;13.60;97.50
39621;DHT22;25309;48.686;9.170;2024-02-26T11:54:44;13.70;97.70
39621;DHT22;25309;48.686;9.170;2024-02-26T11:57:24;13.90;97.60
39621;DHT22;25309;48.686;9.170;2024-02-26T11:59:55;14.00;97.40
39621;DHT22;25309;48.686;9.170;2024-02-26T12:02:40;14.10;96.90
39621;DHT22;25309;48.686;9.170;2024-02-26T12:05:10;14.30;97.00
39621;DHT22;25309;48.686;9.170;2024-02-26T12:07:46;14.50;96.70
39621;DHT22;25309;48.686;9.170;2024-02-26T12:10:17;14.60;96.00
39621;DHT22;25309;48.686;9.170;2024-02-26T12:12:47;14.70;96.10
39621;DHT22;25309;48.686;9.170;2024-02-26T12:15:15;14.80;96.00
39621;DHT22;25309;48.686;9.170;2024-02-26T12:17:48;14.80;95.70
39621;DHT22;25309;48.686;9.170;2024-02-26T12:20:17;14.90;95.50
39621;DHT22;25309;48.686;9.170;2024-02-26T12:22:45;15.00;95.90
39621;DHT22;25309;48.686;9.170;2024-02-26T12:25:14;15.20;95.30
39621;DHT22;25309;48.686;9.170;2024-02-26T12:27:41;15.30;95.10
39621;DHT22;25309;48.686;9.170;2024-02-26T12:30:09;15.40;95.00
39621;DHT22;25309;48.686;9.170;2024-02-26T12:32:36;15.40;93.80
39621;DHT22;25309;48.686;9.170;2024-02-26T12:35:06;15.40;94.20
39621;DHT22;25309;48.686;9.170;2024-02-26T12:37:33;15.50;94.50
39621;DHT22;25309;48.686;9.170;2024-02-26T12:40:04;15.60;94.30
39621;DHT22;25309;48.686;9.170;2024-02-26T12:42:32;15.80;94.30
39621;DHT22;25309;48.686;9.170;2024-02-26T12:45:07;16.10;93.90
39621;DHT22;25309;48.686;9.170;2024-02-26T12:47:37;16.50;93.80
39621;DHT22;25309;48.686;9.170;2024-02-26T12:50:07;16.60;92.10
39621;DHT22;25309;48.686;9.170;2024-02-26T12:52:38;16.60;91.80
39621;DHT22;25309;48.686;9.170;2024-02-26T12:55:06;16.60;91.50
39621;DHT22;25309;48.686;9.170;2024-02-26T12:57:37;16.50;91.80
39621;DHT22;25309;48.686;9.170;2024-02-26T13:00:05;16.40;92.10
39621;DHT22;25309;48.686;9.170;2024-02-26T13:02:36;16.30;92.80
39621;DHT22;25309;48.686;9.170;2024-02-26T13:05:06;16.20;92.90
39621;DHT22;25309;48.686;9.170;2024-02-26T13:07:34;16.00;93.20
39621;DHT22;25309;48.686;9.170;2024-02-26T13:10:08;15.90;93.50
39621;DHT22;25309;48.686;9.170;2024-02-26T13:12:35;15.80;93.20
39621;DHT22;25309;48.686;9.170;2024-02-26T13:15:03;15.70;93.60
39621;DHT22;25309;48.686;9.170;2024-02-26T13:17:31;15.70;93.80
39621;DHT22;25309;48.686;9.170;2024-02-26T13:19:59;15.70;93.70
39621;DHT22;25309;48.686;9.170;2024-02-26T13:22:27;15.70;93.40
39621;DHT22;25309;48.686;9.170;2024-02-26T13:24:57;15.70;94.00
39621;DHT22;25309;48.686;9.170;2024-02-26T13:27:24;15.80;94.30
39621;DHT22;25309;48.686;9.170;2024-02-26T13:30:02;15.70;93.70
39621;DHT22;25309;48.686;9.170;2024-02-26T13:32:33;15.70;93.50
39621;DHT22;25309;48.686;9.170;2024-02-26T13:35:07;15.70;93.50
39621;DHT22;25309;48.686;9.170;2024-02-26T13:37:36;15.80;93.70
39621;DHT22;25309;48.686;9.170;2024-02-26T13:40:07;15.80;93.30
39621;DHT22;25309;48.686;9.170;2024-02-26T13:42:35;15.90;94.00
39621;DHT22;25309;48.686;9.170;2024-02-26T13:45:04;15.90;93.90
39621;DHT22;25309;48.686;9.170;2024-02-26T13:47:35;16.10;93.50
39621;DHT22;25309;48.686;9.170;2024-02-26T13:50:02;16.10;93.70
39621;DHT22;25309;48.686;9.170;2024-02-26T13:52:30;16.30;93.90
39621;DHT22;25309;48.686;9.170;2024-02-26T13:55:00;16.60;93.60
39621;DHT22;25309;48.686;9.170;2024-02-26T13:57:29;16.80;93.40
39621;DHT22;25309;48.686;9.170;2024-02-26T13:59:56;16.90;93.20
39621;DHT22;25309;48.686;9.170;2024-02-26T14:02:23;17.10;93.00
39621;DHT22;25309;48.686;9.170;2024-02-26T14:04:50;17.30;92.40
39621;DHT22;25309;48.686;9.170;2024-02-26T14:07:17;17.40;92.40
39621;DHT22;25309;48.686;9.170;2024-02-26T14:09:44;17.30;92.00
39621;DHT22;25309;48.686;9.170;2024-02-26T14:12:18;17.40;92.30
39621;DHT22;25309;48.686;9.170;2024-02-26T14:14:50;17.30;92.20
39621;DHT22;25309;48.686;9.170;2024-02-26T14:17:20;17.00;92.00
39621;DHT22;25309;48.686;9.170;2024-02-26T14:19:47;16.90;92.90
39621;DHT22;25309;48.686;9.170;2024-02-26T14:22:15;16.80;92.90
39621;DHT22;25309;48.686;9.170;2024-02-26T14:24:45;16.80;93.10
39621;DHT22;25309;48.686;9.170;2024-02-26T14:27:13;16.90;92.20
39621;DHT22;25309;48.686;9.170;2024-02-26T14:29:44;17.20;92.50
39621;DHT22;25309;48.686;9.170;2024-02-26T14:32:11;17.50;92.50
39621;DHT22;25309;48.686;9.170;2024-02-26T14:34:38;17.80;91.70
39621;DHT22;25309;48.686;9.170;2024-02-26T14:37:05;18.10;91.20
39621;DHT22;25309;48.686;9.170;2024-02-26T14:39:32;18.10;91.40
39621;DHT22;25309;48.686;9.170;2024-02-26T14:42:00;18.00;91.80
39621;DHT22;25309;48.686;9.170;2024-02-26T14:44:28;17.80;91.50
39621;DHT22;25309;48.686;9.170;2024-02-26T14:46:56;17.60;91.20
39621;DHT22;25309;48.686;9.170;2024-02-26T14:49:23;17.60;91.90
39621;DHT22;25309;48.686;9.170;2024-02-26T14:51:50;17.60;91.60
39621;DHT22;25309;48.686;9.170;2024-02-26T14:54:17;17.60;92.00
39621;DHT22;25309;48.686;9.170;2024-02-26T14:56:45;17.50;91.80
39621;DHT22;25309;48.686;9.170;2024-02-26T14:59:12;17.10;92.30
39621;DHT22;25309;48.686;9.170;2024-02-26T15:01:39;16.90;92.60
39621;DHT22;25309;48.686;9.170;2024-02-26T15:04:10;16.50;92.60
39621;DHT22;25309;48.686;9.170;2024-02-26T15:06:38;16.30;93.10
39621;DHT22;25309;48.686;9.170;2024-02-26T15:09:05;15.90;92.90
39621;DHT22;25309;48.686;9.170;2024-02-26T15:11:33;15.60;93.50
39621;DHT22;25309;48.686;9.170;2024-02-26T15:14:00;15.40;94.00
39621;DHT22;25309;48.686;9.170;2024-02-26T15:16:26;15.30;94.00
39621;DHT22;25309;48.686;9.170;2024-02-26T15:18:53;15.10;93.90
39621;DHT22;25309;48.686;9.170;2024-02-26T15:21:22;15.00;94.20
39621;DHT22;25309;48.686;9.170;2024-02-26T15:23:49;15.00;94.10
39621;DHT22;25309;48.686;9.170;2024-02-26T15:26:33;14.90;94.50
39621;DHT22;25309;48.686;9.170;2024-02-26T15:29:01;14.80;94.80
39621;DHT22;25309;48.686;9.170;2024-02-26T15:31:28;14.70;94.70
39621;DHT22;25309;48.686;9.170;2024-02-26T15:33:55;14.70;94.80
39621;DHT22;25309;48.686;9.170;2024-02-26T15:36:23;14.60;94.50
39621;DHT22;25309;48.686;9.170;2024-02-26T15:38:50;14.50;94.30
39621;DHT22;25309;48.686;9.170;2024-02-26T15:41:17;14.40;94.70
39621;DHT22;25309;48.686;9.170;2024-02-26T15:43:44;14.30;94.90
39621;DHT22;25309;48.686;9.170;2024-02-26T15:46:11;14.20;94.80